• Join FlightAware (Why Join?)
  • Login
  • US Flag 
06:10AM EDT


 

Airport Tracker/Info


-or-


 

Live Flight TrackerFlight Track Log ✈ NKS971 ✈ 22-Apr-2013 ✈ KFLL - KDFW

Flight Track Log - Related Links

Times and Time Zones

All times are in EDT time to prevent confusion due to time zone crossing. See the NKS971 flight status page for this flight to view local times or setup timezone preferences in your user account.

Time Position Orientation Groundspeed Altitude Reporting Facility
EDT Latitude Longitude Course Direction KTS MPH feet Rate Location/Type
08:39PM 26.0770 -80.1350 89° East 163 188 600  Level FlightAware
08:39PM 26.0770 -80.1140 90° East 170 196 1,700 1,740 Climbing FlightAware
08:40PM 26.0780 -80.0850 88° East 205 236 2,200 1,080 Climbing FlightAware
08:40PM 26.0890 -80.0530 69° East 245 282 2,800 1,320 Climbing FlightAware
08:40PM 26.0980 -80.0450 39° Northeast 256 295 3,100 2,640 Climbing FlightAware
08:41PM 26.1160 -80.0410 11° North 262 302 3,900 3,060 Climbing FlightAware
08:41PM 26.1490 -80.0560 338° Northwest 260 299 5,400 2,940 Climbing FlightAware
08:41PM 26.1740 -80.0780 322° Northwest 271 312 6,600 2,940 Climbing FlightAware
08:42PM 26.2040 -80.1040 322° Northwest 275 316 8,100 2,760 Climbing FlightAware
08:42PM 26.2130 -80.1230 298° West 281 323 8,700 2,700 Climbing FlightAware
08:43PM 26.2190 -80.1600 280° West 287 330 9,900 2,400 Climbing FlightAware
08:43PM 26.2300 -80.2240 281° West 305 351 11,500 2,280 Climbing FlightAware
08:44PM 26.2430 -80.2900 282° West 318 366 13,200 1,920 Climbing FlightAware
08:45PM 26.2550 -80.3570 281° West 346 398 14,100 1,740 Climbing FlightAware
08:45PM 26.2700 -80.4370 282° West 351 404 15,700 1,860 Climbing FlightAware
08:46PM 26.2840 -80.5090 282° West 365 420 16,800 1,740 Climbing FlightAware
08:46PM 26.2920 -80.5350 289° West 372 428 17,300 2,160 Climbing FlightAware
08:47PM 26.3370 -80.6070 305° West 370 426 19,000 2,040 Climbing FlightAware
08:48PM 26.3770 -80.6700 305° West 376 433 20,200 1,860 Climbing FlightAware
08:48PM 26.4180 -80.7340 306° West 378 435 21,500 1,680 Climbing FlightAware
08:49PM 26.4590 -80.7990 305° West 382 440 22,500 1,440 Climbing FlightAware
08:50PM 26.5010 -80.8770 301° West 387 445 23,600 1,440 Climbing FlightAware
08:51PM 26.5290 -80.9630 290° West 391 450 24,700 1,380 Climbing FlightAware
08:51PM 26.5550 -81.0390 291° West 397 457 25,600 1,260 Climbing FlightAware
08:52PM 26.5800 -81.1160 290° West 402 463 26,400 1,020 Climbing FlightAware
08:53PM 26.6100 -81.2060 290° West 413 475 27,100 1,080 Climbing FlightAware
08:53PM 26.6370 -81.2870 290° West 413 475 28,000 1,380 Climbing FlightAware
08:54PM 26.6630 -81.3630 291° West 408 470 29,000 1,200 Climbing FlightAware
08:55PM 26.6930 -81.4550 290° West 414 476 29,700 1,200 Climbing FlightAware
08:55PM 26.7120 -81.5140 290° West 405 466 30,500 1,440 Climbing FlightAware
08:56PM 26.7420 -81.6030 291° West 401 461 31,500 1,260 Climbing FlightAware
08:57PM 26.7750 -81.7040 290° West 398 458 32,500 1,380 Climbing FlightAware
08:58PM 26.7990 -81.7790 290° West 390 449 33,600 1,440 Climbing FlightAware
08:58PM 26.8270 -81.8620 291° West 379 436 34,600 960 Climbing FlightAware
08:59PM 26.8510 -81.9360 290° West 381 438 35,000 660 Climbing FlightAware
09:00PM 26.8750 -82.0100 290° West 382 440 35,500 660 Climbing FlightAware
09:00PM 26.9000 -82.0860 290° West 382 440 35,900 300 Climbing FlightAware
09:01PM 26.9270 -82.1700 290° West 384 442 36,000 60 Climbing FlightAware
09:02PM 26.9530 -82.2520 290° West 385 443 36,000  Level FlightAware
09:02PM 26.9780 -82.3280 290° West 385 443 36,000  Level FlightAware
09:03PM 27.0030 -82.4050 290° West 385 443 36,000  Level FlightAware
09:04PM 27.0290 -82.4860 290° West 385 443 36,000  Level FlightAware
09:05PM 27.0530 -82.5620 290° West 386 444 36,000  Level FlightAware
09:05PM 27.0820 -82.6510 290° West 384 442 36,000  Level FlightAware
09:06PM 27.1120 -82.7460 290° West 383 441 36,000  Level FlightAware
09:07PM 27.1360 -82.8210 290° West 382 440 36,000  Level FlightAware
09:08PM 27.1620 -82.9030 290° West 382 440 36,000  Level FlightAware
09:08PM 27.1850 -82.9770 289° West 381 438 36,000  Level FlightAware
09:09PM 27.2140 -83.0680 290° West 381 438 36,000  Level FlightAware
09:10PM 27.2380 -83.1430 290° West 381 438 36,000  Level FlightAware
09:10PM 27.2610 -83.2170 289° West 382 440 36,000  Level FlightAware
09:11PM 27.2890 -83.3050 290° West 382 440 36,000  Level FlightAware
09:12PM 27.3120 -83.3790 289° West 384 442 36,000  Level FlightAware
09:12PM 27.3350 -83.4520 290° West 385 443 36,000  Level FlightAware
09:13PM 27.3680 -83.5590 289° West 386 444 36,000  Level FlightAware
09:14PM 27.3920 -83.6350 290° West 386 444 36,000  Level FlightAware
09:15PM 27.4150 -83.7120 289° West 386 444 36,000  Level FlightAware
09:16PM 27.4430 -83.8000 290° West 385 443 36,000  Level FlightAware
09:16PM 27.4670 -83.8790 289° West 385 443 36,000  Level FlightAware
09:17PM 27.4940 -83.9670 289° West 383 441 36,000  Level FlightAware
09:18PM 27.5170 -84.0420 289° West 382 440 36,000  Level FlightAware
09:18PM 27.5430 -84.1240 290° West 383 441 36,000  Level FlightAware
09:19PM 27.5660 -84.2000 289° West 383 441 36,000  Level FlightAware
09:20PM 27.5890 -84.2750 289° West 383 441 36,000  Level FlightAware
09:20PM 27.6150 -84.3630 288° West 383 441 36,000  Level FlightAware
09:21PM 27.6380 -84.4370 289° West 384 442 36,000  Level FlightAware
09:22PM 27.6630 -84.5190 289° West 384 442 36,000  Level FlightAware
09:23PM 27.6870 -84.5980 289° West 385 443 36,000  Level FlightAware
09:23PM 27.7090 -84.6720 289° West 386 444 36,000  Level FlightAware
09:24PM 27.7360 -84.7610 289° West 386 444 36,000  Level FlightAware
09:25PM 27.7580 -84.8330 289° West 386 444 36,000  Level FlightAware
09:25PM 27.7810 -84.9120 288° West 386 444 36,000  Level FlightAware
09:26PM 27.8050 -84.9910 289° West 385 443 36,000  Level FlightAware
09:27PM 27.8310 -85.0780 289° West 36,000  Level FlightAware
09:27PM 27.8500 -85.1410 289° West 384 442 36,000  Level FlightAware
09:28PM 27.8740 -85.2250 288° West 383 441 36,000  Level FlightAware
09:29PM 27.8970 -85.3040 288° West 383 441 36,000  Level FlightAware
09:30PM 27.9250 -85.3930 290° West 383 441 36,000  Level FlightAware
09:30PM 27.9480 -85.4680 289° West 383 441 36,000  Level FlightAware
09:31PM 27.9790 -85.5780 288° West 383 441 36,000  Level FlightAware
09:32PM 27.9970 -85.6430 287° West 383 441 36,000  Level FlightAware
09:33PM 28.0140 -85.7080 287° West 383 441 36,000  Level FlightAware
09:33PM 28.0320 -85.7740 287° West 383 441 36,000  Level FlightAware
09:34PM 28.0490 -85.8390 287° West 383 441 36,000  Level FlightAware
09:35PM 28.0710 -85.9200 287° West 383 441 36,000  Level FlightAware
09:35PM 28.0890 -85.9860 287° West 383 441 36,000  Level FlightAware
09:36PM 28.1070 -86.0510 287° West 383 441 36,000  Level FlightAware
09:37PM 28.1240 -86.1160 287° West 383 441 36,000  Level FlightAware
09:37PM 28.1420 -86.1820 287° West 383 441 36,000  Level FlightAware
09:38PM 28.1640 -86.2630 287° West 383 441 36,000  Level FlightAware
09:39PM 28.1810 -86.3290 286° West 383 441 36,000  Level FlightAware
09:40PM 28.1990 -86.3940 287° West 383 441 36,000  Level FlightAware
09:40PM 28.2170 -86.4590 287° West 383 441 36,000  Level FlightAware
09:41PM 28.3033 -86.6619 287° West 391 450 36,000  Level Jacksonville Center
09:42PM 28.3356 -86.7739 288° West 380 437 36,000  Level Jacksonville Center
09:43PM 28.3714 -86.8933 289° West 387 445 36,000  Level Jacksonville Center
09:44PM 28.4053 -87.0081 289° West 387 445 36,000  Level Jacksonville Center
09:45PM 28.4369 -87.1247 287° West 387 445 36,000  Level Jacksonville Center
09:46PM 28.4708 -87.2397 289° West 381 438 36,000 -60 Level Jacksonville Center
09:47PM 28.5025 -87.3519 288° West 388 447 35,900 -60 Descending Jacksonville Center
09:48PM 28.5400 -87.4717 290° West 388 447 35,900  Level Jacksonville Center
09:50PM 28.6203 -87.7600 288° West 388 447 36,000  Climbing Houston Center
09:51PM 28.6528 -87.8758 288° West 385 443 36,000  Level Houston Center
09:52PM 28.6856 -87.9914 288° West 384 442 36,000  Level Houston Center
09:53PM 28.7306 -88.0989 296° West 395 455 36,000  Level Houston Center
09:59PM 29.0680 -88.6610 296° West 387 445 36,000  Level FlightAware
09:59PM 29.1110 -88.7330 304° West 387 445 36,000  Level FlightAware
10:00PM 29.1570 -88.8100 304° West 386 444 36,000  Level FlightAware
10:01PM 29.1840 -88.8560 304° West 387 445 36,000  Level FlightAware
10:02PM 29.2340 -88.9400 304° West 387 445 36,000  Level FlightAware
10:02PM 29.2740 -89.0090 304° West 388 447 36,000  Level FlightAware
10:03PM 29.3090 -89.0670 305° West 388 447 36,000  Level FlightAware
10:04PM 29.3510 -89.1390 304° West 388 447 36,000  Level FlightAware
10:04PM 29.3850 -89.1970 304° West 388 447 36,000  Level FlightAware
10:05PM 29.4200 -89.2550 305° West 388 447 36,000  Level FlightAware
10:06PM 29.4540 -89.3140 304° West 388 447 36,000  Level FlightAware
10:06PM 29.4880 -89.3720 304° West 388 447 36,000  Level FlightAware
10:07PM 29.5300 -89.4440 304° West 388 447 36,000  Level FlightAware
10:08PM 29.5650 -89.5020 305° West 388 447 36,000  Level FlightAware
10:08PM 29.5990 -89.5610 304° West 388 447 36,000  Level FlightAware
10:09PM 29.6330 -89.6190 304° West 388 447 36,000  Level FlightAware
10:10PM 29.6670 -89.6770 304° West 388 447 36,000  Level FlightAware
10:11PM 29.7850 -89.8800 304° West 389 448 36,000  Level FlightAware
10:11PM 29.8290 -89.9540 304° West 388 447 36,000  Level FlightAware
10:12PM 29.8500 -89.9920 303° West 389 448 36,000  Level FlightAware
10:13PM 29.9110 -90.0960 304° West 388 447 36,000  Level FlightAware
10:13PM 29.9460 -90.1580 303° West 387 445 36,000  Level FlightAware
10:14PM 29.9850 -90.2260 304° West 388 447 36,000  Level FlightAware
10:15PM 30.0290 -90.3030 303° West 386 444 36,000  Level FlightAware
10:15PM 30.0690 -90.3710 304° West 386 444 36,000  Level FlightAware
10:16PM 30.1120 -90.4470 303° West 386 444 36,000  Level FlightAware
10:17PM 30.1530 -90.5180 304° West 385 443 36,000  Level FlightAware
10:18PM 30.1960 -90.5950 303° West 385 443 36,000  Level FlightAware
10:18PM 30.2400 -90.6720 303° West 385 443 36,000  Level FlightAware
10:19PM 30.2677 -90.7198 304° West 386 444 36,000  Level FlightAware ADS-B
10:19PM 30.2975 -90.7724 303° West 386 444 36,000  Level FlightAware ADS-B
10:20PM 30.3250 -90.8210 303° West 385 443 36,000  Level FlightAware
10:20PM 30.3630 -90.8880 303° West 385 443 36,000  Level FlightAware
10:21PM 30.4030 -90.9600 303° West 385 443 36,000  Level FlightAware
10:22PM 30.4740 -91.0840 304° West 386 444 36,000  Level FlightAware
10:23PM 30.5220 -91.1700 303° West 386 444 36,000  Level FlightAware
10:24PM 30.5550 -91.2290 303° West 386 444 36,000  Level FlightAware
10:25PM 30.5960 -91.3030 303° West 386 444 36,000  Level FlightAware
10:25PM 30.6290 -91.3620 303° West 386 444 36,000  Level FlightAware
10:26PM 30.6620 -91.4220 303° West 386 444 36,000  Level FlightAware
10:27PM 30.6950 -91.4810 303° West 386 444 36,000  Level FlightAware
10:27PM 30.7290 -91.5400 304° West 386 444 36,000  Level FlightAware
10:28PM 30.7700 -91.6140 303° West 386 444 36,000  Level FlightAware
10:29PM 30.8480 -91.7560 303° West 386 444 36,000  Level FlightAware
10:30PM 30.8880 -91.8310 302° West 386 444 36,000  Level FlightAware
10:30PM 30.9200 -91.8910 302° West 386 444 36,000  Level FlightAware
10:31PM 30.9520 -91.9510 302° West 386 444 36,000  Level FlightAware
10:32PM 30.9840 -92.0110 302° West 386 444 36,000  Level FlightAware
10:32PM 31.0480 -92.1181 305° West 392 451 36,000  Level FlightAware ADS-B
10:33PM 31.0779 -92.1725 303° West 392 451 36,000  Level FlightAware ADS-B
10:34PM 31.1369 -92.2804 303° West 391 450 36,000  Level FlightAware ADS-B
10:36PM 31.2616 -92.5129 302° West 386 444 36,000  Level FlightAware ADS-B
10:36PM 31.2860 -92.5782 294° West 386 444 36,000  Level FlightAware ADS-B
10:37PM 31.3072 -92.6340 294° West 385 443 36,000  Level FlightAware ADS-B
10:37PM 31.3318 -92.6987 294° West 386 444 36,000  Level FlightAware ADS-B
10:38PM 31.3611 -92.7764 294° West 386 444 36,000  Level FlightAware ADS-B
10:39PM 31.3854 -92.8407 294° West 386 444 36,000  Level FlightAware ADS-B
10:39PM 31.4076 -92.8999 294° West 387 445 36,000  Level FlightAware ADS-B
10:43PM 31.5683 -93.3309 294° West 391 450 36,000  Level FlightAware ADS-B
10:43PM 31.5952 -93.4035 294° West 391 450 36,000  Level FlightAware ADS-B
10:44PM 31.6171 -93.4632 293° West 391 450 36,000  Level FlightAware ADS-B
10:44PM 31.6388 -93.5218 294° West 391 450 36,000  Level FlightAware ADS-B
10:45PM 31.6613 -93.5829 293° West 391 450 36,000  Level FlightAware ADS-B
10:46PM 31.6837 -93.6433 294° West 392 451 36,000  Level FlightAware ADS-B
10:46PM 31.7104 -93.7161 293° West 391 450 36,000  Level FlightAware ADS-B
10:47PM 31.7324 -93.7762 293° West 390 449 36,000  Level FlightAware ADS-B
10:47PM 31.7440 -93.8079 293° West 389 448 36,000  Level FlightAware ADS-B
10:47PM 31.7493 -93.8257 289° West 389 448 36,000  Level FlightAware ADS-B
10:47PM 31.7543 -93.8490 284° West 390 449 36,000  Level FlightAware ADS-B
10:48PM 31.7672 -93.9161 283° West 390 449 36,000  Level FlightAware ADS-B
10:48PM 31.7765 -93.9631 283° West 390 449 36,000  Level FlightAware ADS-B
10:48PM 31.7800 -93.9806 283° West 389 448 36,000  Level FlightAware ADS-B
10:49PM 31.7924 -94.0432 283° West 389 448 36,000  Level FlightAware ADS-B
10:49PM 31.8059 -94.1120 283° West 389 448 36,000  Level FlightAware ADS-B
10:50PM 31.8082 -94.1237 283° West 389 448 36,000  Level FlightAware ADS-B
10:50PM 31.8181 -94.1740 283° West 389 448 36,000  Level FlightAware ADS-B
10:50PM 31.8204 -94.1859 283° West 389 448 36,000  Level FlightAware ADS-B
10:50PM 31.8300 -94.2350 283° West 389 448 36,000  Level FlightAware ADS-B
10:51PM 31.8330 -94.2506 283° West 389 448 36,000  Level FlightAware ADS-B
10:51PM 31.8423 -94.2989 283° West 389 448 36,000  Level FlightAware ADS-B
10:51PM 31.8451 -94.3133 283° West 389 448 36,000  Level FlightAware ADS-B
10:51PM 31.8544 -94.3618 283° West 389 448 36,000  Level FlightAware ADS-B
10:52PM 31.8571 -94.3754 283° West 389 448 36,000  Level FlightAware ADS-B
10:52PM 31.8664 -94.4235 283° West 390 449 36,000  Level FlightAware ADS-B
10:52PM 31.8691 -94.4375 283° West 390 449 36,000  Level FlightAware ADS-B
10:52PM 31.8786 -94.4873 283° West 389 448 36,000  Level FlightAware ADS-B
10:53PM 31.8808 -94.4985 283° West 389 448 36,000  Level FlightAware ADS-B
10:53PM 31.8910 -94.5518 283° West 391 450 36,000  Level FlightAware ADS-B
10:53PM 31.8931 -94.5626 283° West 391 450 36,000  Level FlightAware ADS-B
10:53PM 31.9032 -94.6154 283° West 391 450 36,000  Level FlightAware ADS-B
10:54PM 31.9052 -94.6257 283° West 390 449 36,000  Level FlightAware ADS-B
10:54PM 31.9159 -94.6819 283° West 392 451 36,000  Level FlightAware ADS-B
10:54PM 31.9188 -94.6975 282° West 392 451 36,000  Level FlightAware ADS-B
10:55PM 31.9272 -94.7418 283° West 394 453 36,000  Level FlightAware ADS-B
10:55PM 31.9314 -94.7636 283° West 394 453 36,000  Level FlightAware ADS-B
10:55PM 31.9394 -94.8051 283° West 395 455 36,000  Level FlightAware ADS-B
10:55PM 31.9438 -94.8280 283° West 395 455 36,000  Level FlightAware ADS-B
10:56PM 31.9518 -94.8702 283° West 396 456 36,000  Level FlightAware ADS-B
10:56PM 31.9557 -94.8909 283° West 396 456 36,000  Level FlightAware ADS-B
10:56PM 31.9633 -94.9318 282° West 397 457 36,000  Level FlightAware ADS-B
10:56PM 31.9678 -94.9556 283° West 397 457 36,000  Level FlightAware ADS-B
10:57PM 31.9756 -94.9975 282° West 396 456 36,000  Level FlightAware ADS-B
10:57PM 31.9810 -95.0261 283° West 396 456 36,000  Level FlightAware ADS-B
10:57PM 31.9876 -95.0615 282° West 396 456 36,000  Level FlightAware ADS-B
10:57PM 31.9930 -95.0901 283° West 396 456 36,000  Level FlightAware ADS-B
10:58PM 31.9995 -95.1250 282° West 396 456 36,000  Level FlightAware ADS-B
10:58PM 32.0049 -95.1536 283° West 396 456 36,000  Level FlightAware ADS-B
10:58PM 32.0116 -95.1894 282° West 396 456 36,000  Level FlightAware ADS-B
10:58PM 32.0170 -95.2181 283° West 397 457 36,000  Level FlightAware ADS-B
10:59PM 32.0236 -95.2538 282° West 396 456 36,000  Level FlightAware ADS-B
10:59PM 32.0290 -95.2829 282° West 396 456 36,000 -420 Level FlightAware ADS-B
10:59PM 32.0358 -95.3196 282° West 398 458 35,800 -1,200 Descending FlightAware ADS-B
10:59PM 32.0407 -95.3467 282° West 398 458 35,400 -1,920 Descending FlightAware ADS-B
11:00PM 32.0474 -95.3829 282° West 396 456 34,800 -2,100 Descending FlightAware ADS-B
11:00PM 32.0532 -95.4145 282° West 394 453 34,300 -2,280 Descending FlightAware ADS-B
11:00PM 32.0646 -95.4760 282° West 393 452 33,200 -2,160 Descending FlightAware ADS-B
11:00PM 32.0651 -95.4785 283° West 392 451 33,200 -2,220 Level FlightAware ADS-B
11:01PM 32.0772 -95.5457 282° West 390 449 32,000 -2,280 Descending FlightAware ADS-B
11:01PM 32.0801 -95.5623 282° West 390 449 31,700 -2,220 Descending FlightAware ADS-B
11:01PM 32.0876 -95.6078 281° West 389 448 30,900 -2,220 Descending FlightAware ADS-B
11:02PM 32.0912 -95.6301 281° West 389 448 30,500 -2,160 Descending FlightAware ADS-B
11:02PM 32.1004 -95.6882 281° West 388 447 29,500 -2,280 Descending FlightAware ADS-B
11:02PM 32.1036 -95.7081 281° West 389 448 29,100 -2,280 Descending FlightAware ADS-B
11:03PM 32.1112 -95.7551 281° West 387 445 28,300 -2,280 Descending FlightAware ADS-B
11:03PM 32.1213 -95.8170 281° West 385 443 27,100 -2,340 Descending FlightAware ADS-B
11:03PM 32.1258 -95.8453 281° West 384 442 26,600 -2,220 Descending FlightAware ADS-B
11:04PM 32.1322 -95.8846 281° West 382 440 25,900 -2,220 Descending FlightAware ADS-B
11:04PM 32.1377 -95.9188 281° West 383 441 25,300 -2,160 Descending FlightAware ADS-B
11:04PM 32.1422 -95.9471 281° West 381 438 24,800 -2,220 Descending FlightAware ADS-B
11:04PM 32.1475 -95.9800 281° West 379 436 24,200 -2,280 Descending FlightAware ADS-B
11:05PM 32.1526 -96.0119 281° West 378 435 23,600 -2,160 Descending FlightAware ADS-B
11:05PM 32.1573 -96.0411 281° West 375 432 23,100 -2,220 Descending FlightAware ADS-B
11:05PM 32.1632 -96.0786 281° West 374 430 22,400 -2,220 Descending FlightAware ADS-B
11:05PM 32.1669 -96.1017 281° West 373 429 22,000 -2,160 Descending FlightAware ADS-B
11:06PM 32.1768 -96.1633 281° West 371 427 20,900 -2,160 Descending FlightAware ADS-B
11:06PM 32.1862 -96.2093 284° West 368 423 20,100 -1,800 Descending FlightAware ADS-B
11:07PM 32.2003 -96.2355 302° West 363 418 19,700 -1,620 Descending FlightAware ADS-B
11:07PM 32.2037 -96.2399 312° West 362 417 19,600 -2,040 Descending FlightAware ADS-B
11:07PM 32.2392 -96.2812 315° West 352 405 18,600 -1,920 Descending FlightAware ADS-B
11:08PM 32.2894 -96.3405 315° West 340 391 17,300 -1,860 Descending FlightAware ADS-B
11:08PM 32.3231 -96.3805 315° West 332 382 16,300 -1,740 Descending FlightAware ADS-B
11:09PM 32.3642 -96.4291 315° West 329 379 15,300 -1,320 Descending FlightAware ADS-B
11:10PM 32.3965 -96.4674 315° West 330 380 14,800 -1,560 Descending FlightAware ADS-B
11:10PM 32.4330 -96.5110 315° West 333 383 13,600 -2,100 Descending FlightAware
11:11PM 32.4770 -96.5620 316° Northwest 332 382 12,200 -1,560 Descending FlightAware
11:12PM 32.5240 -96.6180 315° West 308 354 11,400 -780 Descending FlightAware
11:12PM 32.5620 -96.6630 315° West 281 323 11,100 -240 Descending FlightAware
11:13PM 32.6050 -96.7150 314° West 286 329 11,100  Level FlightAware
11:14PM 32.6410 -96.7590 314° West 285 328 11,100  Level FlightAware
11:14PM 32.6790 -96.8040 315° West 284 327 11,100  Level FlightAware
11:15PM 32.7180 -96.8500 315° West 246 283 11,100  Level FlightAware
11:16PM 32.7490 -96.8870 315° West 234 269 11,100  Level FlightAware
11:16PM 32.7620 -96.8990 322° Northwest 242 278 11,100  Level FlightAware
11:16PM 32.7800 -96.9030 349° North 257 296 11,100 -240 Level FlightAware
11:17PM 32.8180 -96.9030 360° North 256 295 10,900 -1,080 Descending FlightAware
11:17PM 32.8600 -96.9030 360° North 253 291 9,900 -1,920 Descending FlightAware
11:18PM 32.8910 -96.9040 358° North 254 292 9,000 -1,980 Descending FlightAware
11:18PM 32.9270 -96.9040 360° North 254 292 8,100 -1,800 Descending FlightAware
11:19PM 32.9610 -96.9050 359° North 257 296 7,200 -1,680 Descending FlightAware
11:19PM 32.9900 -96.9050 360° North 256 295 6,600 -1,320 Descending FlightAware
11:20PM 33.0250 -96.9060 359° North 252 290 6,000 -1,440 Descending FlightAware
11:20PM 33.0560 -96.9060 360° North 259 298 5,300 -1,500 Descending FlightAware
11:20PM 33.0740 -96.9100 349° North 253 291 5,000 -1,020 Descending FlightAware
11:21PM 33.0870 -96.9200 327° Northwest 232 267 4,800 -1,200 Descending FlightAware
11:21PM 33.0930 -96.9380 292° West 202 232 4,400 -1,380 Descending FlightAware
11:21PM 33.0950 -96.9640 275° West 195 224 3,900 -1,200 Descending FlightAware
11:22PM 33.0920 -96.9920 263° West 162 186 3,300 -1,080 Descending FlightAware
11:22PM 33.0860 -97.0020 234° Southwest 152 175 3,100 -480 Descending FlightAware
11:22PM 33.0720 -97.0160 220° Southwest 151 174 3,000  Descending FlightAware
11:23PM 33.0530 -97.0240 199° South 145 167 3,100 -120 Climbing FlightAware
11:23PM 33.0330 -97.0250 182° South 134 154 2,900 -600 Descending FlightAware
11:24PM 33.0180 -97.0250 180° South 134 154 2,600 -780 Descending FlightAware
11:24PM 32.9990 -97.0260 183° South 136 157 2,200 -720 Descending FlightAware
11:25PM 32.9860 -97.0260 180° South 134 154 2,000 -660 Descending FlightAware
11:25PM 32.9650 -97.0260 180° South 134 154 1,600 -720 Descending FlightAware